Time;durP1;ratioP1;P1;durP2;ratioP2;P2;SDS_P1;SDS_P2;PMS_P1;PMS_P2;Temp;Humidity;BMP_temperature;BMP_pressure;BME280_temperature;BME280_humidity;BME280_pressure;Samples;Min_cycle;Max_cycle;Signal;HPM_P1;HPM_P2
2022/01/30 00:01:28;;;;;;;;;;;6.20;99.90;;;;;;5097020;28;20036;-87
2022/01/30 00:03:56;;;;;;;;;;;6.00;99.90;;;;;;5097093;28;19970;-86
2022/01/30 00:06:23;;;;;;;;;;;6.00;99.90;;;;;;5096874;28;19924;-87
2022/01/30 00:08:49;;;;;;;;;;;5.90;99.90;;;;;;5092538;28;20478;-87
2022/01/30 00:11:20;;;;;;;;;;;5.90;99.90;;;;;;5097034;28;20434;-88
2022/01/30 00:13:47;;;;;;;;;;;5.90;99.90;;;;;;5097014;28;19924;-87
2022/01/30 00:16:16;;;;;;;;;;;5.80;99.90;;;;;;5096529;28;19932;-87
2022/01/30 00:18:53;;;;;;;;;;;6.00;99.90;;;;;;5096625;28;19924;-87
2022/01/30 00:21:32;;;;;;;;;;;5.80;99.90;;;;;;5096168;28;20411;-87
2022/01/30 00:24:04;;;;;;;;;;;5.90;99.90;;;;;;5096533;28;20400;-86
2022/01/30 00:26:33;;;;;;;;;;;5.80;99.90;;;;;;5097728;28;19924;-88
2022/01/30 00:29:00;;;;;;;;;;;5.90;99.90;;;;;;5097841;28;20412;-87
2022/01/30 00:31:27;;;;;;;;;;;5.80;99.90;;;;;;5097818;28;19955;-87
2022/01/30 00:33:54;;;;;;;;;;;5.80;99.90;;;;;;5096746;28;19954;-87
2022/01/30 00:36:23;;;;;;;;;;;5.90;99.90;;;;;;5096406;28;20000;-87
2022/01/30 00:38:49;;;;;;;;;;;6.20;99.90;;;;;;5096512;28;19924;-88
2022/01/30 00:41:16;;;;;;;;;;;5.90;99.90;;;;;;5096330;28;20000;-87
2022/01/30 00:43:43;;;;;;;;;;;5.50;99.90;;;;;;5096136;28;20434;-87
2022/01/30 00:46:10;;;;;;;;;;;5.80;99.90;;;;;;5096213;28;20442;-87
2022/01/30 00:48:37;;;;;;;;;;;6.10;99.90;;;;;;5095851;28;19946;-87
2022/01/30 00:51:04;;;;;;;;;;;5.70;99.90;;;;;;5096173;28;19959;-87
2022/01/30 00:53:32;;;;;;;;;;;5.60;99.90;;;;;;5096314;28;20379;-87
2022/01/30 00:55:59;;;;;;;;;;;5.60;99.90;;;;;;5095920;28;20420;-87
2022/01/30 00:58:26;;;;;;;;;;;5.60;99.90;;;;;;5096038;28;19964;-87
2022/01/30 01:00:53;;;;;;;;;;;5.50;99.90;;;;;;5095793;28;19924;-87
2022/01/30 01:03:20;;;;;;;;;;;5.50;99.90;;;;;;5096051;28;20005;-86
2022/01/30 01:05:47;;;;;;;;;;;5.60;99.90;;;;;;5095812;28;19968;-87
2022/01/30 01:08:19;;;;;;;;;;;5.60;99.90;;;;;;5095336;28;19973;-87
2022/01/30 01:10:52;;;;;;;;;;;5.70;99.90;;;;;;5095376;28;19924;-87
2022/01/30 01:24:27;;;;;;;;;;;5.50;99.90;;;;;;5094725;28;19954;-87
2022/01/30 01:26:55;;;;;;;;;;;5.40;99.90;;;;;;5094907;28;19951;-87
2022/01/30 01:29:22;;;;;;;;;;;5.40;99.90;;;;;;5094874;28;19967;-86
2022/01/30 01:31:49;;;;;;;;;;;5.40;99.90;;;;;;5094382;28;19955;-87
2022/01/30 01:36:56;;;;;;;;;;;5.50;99.90;;;;;;5092970;28;19924;-87
2022/01/30 01:39:23;;;;;;;;;;;5.60;99.90;;;;;;5095272;28;19970;-87
2022/01/30 01:41:50;;;;;;;;;;;5.60;99.90;;;;;;5095115;28;19924;-87
2022/01/30 01:44:20;;;;;;;;;;;5.50;99.90;;;;;;5095183;28;19924;-87
2022/01/30 01:46:48;;;;;;;;;;;5.50;99.90;;;;;;5095564;28;19975;-87
2022/01/30 01:49:20;;;;;;;;;;;5.40;99.90;;;;;;5095772;28;19924;-87
2022/01/30 01:52:00;;;;;;;;;;;5.40;99.90;;;;;;5095180;28;19924;-87
2022/01/30 01:54:27;;;;;;;;;;;5.30;99.90;;;;;;5095011;28;19924;-87
2022/01/30 01:56:54;;;;;;;;;;;5.30;99.90;;;;;;5095001;28;19979;-87
2022/01/30 01:59:22;;;;;;;;;;;5.30;99.90;;;;;;5094866;28;20048;-87
2022/01/30 02:01:52;;;;;;;;;;;5.10;99.90;;;;;;5094553;28;19967;-87
2022/01/30 02:04:20;;;;;;;;;;;5.10;99.90;;;;;;5094753;28;19959;-87
2022/01/30 02:06:47;;;;;;;;;;;5.00;99.90;;;;;;5094314;28;19931;-87
2022/01/30 02:09:14;;;;;;;;;;;5.10;99.90;;;;;;5094567;28;19946;-87
2022/01/30 02:11:44;;;;;;;;;;;5.10;99.90;;;;;;5094796;28;19950;-87
2022/01/30 02:14:26;;;;;;;;;;;5.10;99.90;;;;;;5093448;28;19924;-87
2022/01/30 02:25:24;;;;;;;;;;;5.20;99.90;;;;;;5094444;28;19931;-87
2022/01/30 02:27:56;;;;;;;;;;;5.20;99.90;;;;;;5095269;28;19931;-87
2022/01/30 02:30:25;;;;;;;;;;;5.30;99.90;;;;;;5095438;28;19926;-86
2022/01/30 02:32:54;;;;;;;;;;;5.40;99.90;;;;;;5094888;28;20380;-87
2022/01/30 02:35:20;;;;;;;;;;;5.30;99.90;;;;;;5094703;28;19924;-87
2022/01/30 02:37:52;;;;;;;;;;;5.10;99.90;;;;;;5094429;28;19968;-87
2022/01/30 02:40:19;;;;;;;;;;;5.00;99.90;;;;;;5094102;28;20377;-87
2022/01/30 02:42:50;;;;;;;;;;;5.00;99.90;;;;;;5095221;28;19981;-86
2022/01/30 02:45:18;;;;;;;;;;;5.00;99.90;;;;;;5098423;28;19985;-86
2022/01/30 02:47:56;;;;;;;;;;;5.00;99.90;;;;;;5098332;28;19981;-87
2022/01/30 02:50:34;;;;;;;;;;;4.90;99.90;;;;;;5098263;28;20428;-87
2022/01/30 02:53:05;;;;;;;;;;;5.00;99.90;;;;;;5098077;28;19931;-87
2022/01/30 02:55:32;;;;;;;;;;;5.00;99.90;;;;;;5098283;28;20297;-87
2022/01/30 02:57:59;;;;;;;;;;;5.20;99.90;;;;;;5098415;28;19977;-86
2022/01/30 03:00:26;;;;;;;;;;;5.50;99.90;;;;;;5098080;28;20377;-87
2022/01/30 03:02:52;;;;;;;;;;;5.50;99.90;;;;;;5098183;28;19975;-87
2022/01/30 03:05:19;;;;;;;;;;;5.30;99.90;;;;;;5098051;28;19928;-87
2022/01/30 03:07:46;;;;;;;;;;;5.10;99.90;;;;;;5097872;28;19924;-88
2022/01/30 03:10:14;;;;;;;;;;;5.10;99.90;;;;;;5097755;28;19924;-87
2022/01/30 03:12:41;;;;;;;;;;;5.00;99.90;;;;;;5097987;28;19970;-87
2022/01/30 03:15:09;;;;;;;;;;;5.00;99.90;;;;;;5098251;28;20328;-87
2022/01/30 03:17:36;;;;;;;;;;;5.20;99.90;;;;;;5097515;28;19975;-86
2022/01/30 03:20:03;;;;;;;;;;;5.40;99.90;;;;;;5097938;28;19924;-87
2022/01/30 03:22:30;;;;;;;;;;;5.50;99.90;;;;;;5097352;28;19928;-87
2022/01/30 03:24:57;;;;;;;;;;;5.40;99.90;;;;;;5097872;28;19924;-87
2022/01/30 03:27:25;;;;;;;;;;;5.30;99.90;;;;;;5097407;28;19924;-86
2022/01/30 03:30:03;;;;;;;;;;;5.20;99.90;;;;;;5097424;28;20270;-86
2022/01/30 03:32:29;;;;;;;;;;;5.20;99.90;;;;;;5097557;28;19951;-87
2022/01/30 03:34:56;;;;;;;;;;;5.00;99.90;;;;;;5097453;28;19924;-87
2022/01/30 03:37:23;;;;;;;;;;;4.90;99.90;;;;;;5096830;28;19970;-87
2022/01/30 03:39:50;;;;;;;;;;;4.70;99.90;;;;;;5096970;28;19928;-87
2022/01/30 03:42:16;;;;;;;;;;;4.80;99.90;;;;;;5097131;28;19932;-87
2022/01/30 03:44:44;;;;;;;;;;;4.40;99.90;;;;;;5096900;28;19967;-86
2022/01/30 03:47:11;;;;;;;;;;;4.40;99.90;;;;;;5096667;28;19924;-86
2022/01/30 03:49:39;;;;;;;;;;;4.30;99.90;;;;;;5095228;28;19959;-87
2022/01/30 03:52:07;;;;;;;;;;;4.20;99.90;;;;;;5096971;28;19947;-87
2022/01/30 03:54:33;;;;;;;;;;;4.10;99.90;;;;;;5096340;28;19956;-87
2022/01/30 03:57:00;;;;;;;;;;;4.10;99.90;;;;;;5096969;28;20343;-87
2022/01/30 03:59:27;;;;;;;;;;;4.20;99.90;;;;;;5097239;28;19977;-87
2022/01/30 04:01:55;;;;;;;;;;;4.40;99.90;;;;;;5096597;28;20290;-85
2022/01/30 04:04:22;;;;;;;;;;;4.50;99.90;;;;;;5097449;28;19967;-86
2022/01/30 04:06:50;;;;;;;;;;;4.40;99.90;;;;;;5096876;28;19968;-85
2022/01/30 04:09:17;;;;;;;;;;;4.30;99.90;;;;;;5096389;28;19924;-85
2022/01/30 04:11:43;;;;;;;;;;;4.10;99.90;;;;;;5096411;28;20384;-85
2022/01/30 04:14:11;;;;;;;;;;;4.00;99.90;;;;;;5088682;28;20435;-86
2022/01/30 04:16:38;;;;;;;;;;;4.00;99.90;;;;;;5096516;28;19924;-86
2022/01/30 04:19:06;;;;;;;;;;;4.00;99.90;;;;;;5096631;28;19924;-85
2022/01/30 04:21:33;;;;;;;;;;;3.90;99.90;;;;;;5096696;28;19982;-85
2022/01/30 04:24:00;;;;;;;;;;;3.90;99.90;;;;;;5096418;28;19928;-85
2022/01/30 04:26:27;;;;;;;;;;;4.00;99.90;;;;;;5096905;28;19928;-86
2022/01/30 04:28:54;;;;;;;;;;;3.90;99.90;;;;;;5096513;28;20331;-88
2022/01/30 04:31:20;;;;;;;;;;;4.00;99.90;;;;;;5096624;28;19971;-86
2022/01/30 04:33:47;;;;;;;;;;;4.00;99.90;;;;;;5097259;28;19924;-86
2022/01/30 04:36:21;;;;;;;;;;;4.10;99.90;;;;;;5097197;28;19977;-86
2022/01/30 04:38:58;;;;;;;;;;;4.10;99.90;;;;;;5096585;28;19931;-86
2022/01/30 04:58:19;;;;;;;;;;;4.10;99.90;;;;;;5033404;28;19926;-86
2022/01/30 05:03:40;;;;;;;;;;;3.80;99.90;;;;;;5096133;27;19928;-86
2022/01/30 05:06:10;;;;;;;;;;;3.70;99.90;;;;;;5095605;28;19931;-86
2022/01/30 05:08:39;;;;;;;;;;;3.60;99.90;;;;;;5095525;28;19924;-86
2022/01/30 05:11:08;;;;;;;;;;;3.50;99.90;;;;;;5095567;28;20365;-86
2022/01/30 05:13:37;;;;;;;;;;;3.50;99.90;;;;;;5095583;28;19993;-86
2022/01/30 05:16:05;;;;;;;;;;;3.60;99.90;;;;;;5095418;28;19975;-86
2022/01/30 05:18:31;;;;;;;;;;;3.60;99.90;;;;;;5095487;28;19924;-86
2022/01/30 05:20:58;;;;;;;;;;;3.60;99.90;;;;;;5095594;28;19924;-86
2022/01/30 05:23:26;;;;;;;;;;;3.40;99.90;;;;;;5095204;28;20305;-86
2022/01/30 05:25:54;;;;;;;;;;;3.50;99.90;;;;;;5095290;28;20393;-86
2022/01/30 05:28:23;;;;;;;;;;;3.50;99.90;;;;;;5095363;28;19947;-86
2022/01/30 05:30:50;;;;;;;;;;;3.50;99.90;;;;;;5095385;28;19967;-87
2022/01/30 05:33:17;;;;;;;;;;;3.50;99.90;;;;;;5095131;28;19928;-86
2022/01/30 05:35:44;;;;;;;;;;;3.60;99.90;;;;;;5095287;28;19985;-87
2022/01/30 05:38:11;;;;;;;;;;;3.70;99.90;;;;;;5094981;28;20025;-87
2022/01/30 05:40:38;;;;;;;;;;;3.80;99.90;;;;;;5095109;28;19952;-87
2022/01/30 05:43:06;;;;;;;;;;;3.80;99.90;;;;;;5094885;28;19924;-87
2022/01/30 05:45:37;;;;;;;;;;;3.70;99.90;;;;;;5095146;28;20001;-87
2022/01/30 05:48:08;;;;;;;;;;;3.70;99.90;;;;;;5094510;28;19924;-86
2022/01/30 05:50:36;;;;;;;;;;;3.70;99.90;;;;;;5094934;28;20239;-87
2022/01/30 05:53:03;;;;;;;;;;;3.70;99.90;;;;;;5094770;28;19969;-86
2022/01/30 05:55:31;;;;;;;;;;;4.00;99.90;;;;;;5094608;28;19971;-87
2022/01/30 05:57:58;;;;;;;;;;;3.90;99.90;;;;;;5094759;28;19971;-87
2022/01/30 06:00:26;;;;;;;;;;;3.90;99.90;;;;;;5094547;28;19924;-87
2022/01/30 06:02:53;;;;;;;;;;;3.90;99.90;;;;;;5094074;28;19974;-87
2022/01/30 06:05:22;;;;;;;;;;;4.20;99.90;;;;;;5093969;28;20340;-87
2022/01/30 06:07:52;;;;;;;;;;;3.50;99.90;;;;;;5093931;28;19924;-87
2022/01/30 06:10:19;;;;;;;;;;;3.80;99.90;;;;;;5093611;28;20366;-87
2022/01/30 06:12:46;;;;;;;;;;;3.90;99.90;;;;;;5094103;28;19928;-87
2022/01/30 06:15:14;;;;;;;;;;;4.00;99.90;;;;;;5092398;28;19931;-87
2022/01/30 06:17:43;;;;;;;;;;;4.20;99.90;;;;;;5093628;28;19934;-87
2022/01/30 06:20:10;;;;;;;;;;;4.40;99.90;;;;;;5089607;28;19990;-87
2022/01/30 06:22:37;;;;;;;;;;;4.30;99.90;;;;;;5094319;28;19924;-87
2022/01/30 06:25:04;;;;;;;;;;;4.00;99.90;;;;;;5094346;28;19976;-87
2022/01/30 06:27:31;;;;;;;;;;;3.90;99.90;;;;;;5094421;28;19969;-87
2022/01/30 06:29:58;;;;;;;;;;;3.80;99.90;;;;;;5094313;28;19924;-86
2022/01/30 06:32:25;;;;;;;;;;;3.80;99.90;;;;;;5094260;28;19924;-86
2022/01/30 06:34:53;;;;;;;;;;;3.90;99.90;;;;;;5094350;28;19971;-87
2022/01/30 06:37:20;;;;;;;;;;;3.90;99.90;;;;;;5095287;28;20003;-86
2022/01/30 06:39:47;;;;;;;;;;;3.80;99.90;;;;;;5093614;28;20332;-86
2022/01/30 06:42:14;;;;;;;;;;;3.70;99.90;;;;;;5095038;28;19924;-86
2022/01/30 06:44:43;;;;;;;;;;;3.50;99.90;;;;;;5094845;28;19932;-86
2022/01/30 06:47:09;;;;;;;;;;;3.40;99.90;;;;;;5094126;28;19998;-87
2022/01/30 06:49:36;;;;;;;;;;;3.50;99.90;;;;;;5093847;28;19972;-86
2022/01/30 06:52:06;;;;;;;;;;;3.60;99.90;;;;;;5093942;28;19960;-86
2022/01/30 06:54:33;;;;;;;;;;;3.60;99.90;;;;;;5093945;28;19959;-86
2022/01/30 06:57:00;;;;;;;;;;;3.50;99.90;;;;;;5093985;28;19955;-86
2022/01/30 06:59:26;;;;;;;;;;;3.40;99.90;;;;;;5093744;28;19978;-85
2022/01/30 07:01:54;;;;;;;;;;;3.30;99.90;;;;;;5093805;28;19952;-86
2022/01/30 07:04:20;;;;;;;;;;;3.20;99.90;;;;;;5093808;28;19934;-86
2022/01/30 07:06:47;;;;;;;;;;;2.80;99.90;;;;;;5093758;28;20285;-86
2022/01/30 07:09:15;;;;;;;;;;;3.00;99.90;;;;;;5093260;28;19970;-86
2022/01/30 07:11:42;;;;;;;;;;;2.90;99.90;;;;;;5093580;28;19924;-86
2022/01/30 07:14:09;;;;;;;;;;;2.90;99.90;;;;;;5093664;28;19986;-86
2022/01/30 07:16:36;;;;;;;;;;;2.80;99.90;;;;;;5093373;28;19967;-86
2022/01/30 07:19:03;;;;;;;;;;;2.80;99.90;;;;;;5093416;28;19924;-86
2022/01/30 07:21:30;;;;;;;;;;;2.70;99.90;;;;;;5093654;28;19975;-86
2022/01/30 07:23:57;;;;;;;;;;;2.90;99.90;;;;;;5093539;28;20354;-86
2022/01/30 07:26:25;;;;;;;;;;;2.70;99.90;;;;;;5093536;28;19925;-86
2022/01/30 07:28:52;;;;;;;;;;;2.70;99.90;;;;;;5093520;28;19955;-86
2022/01/30 07:31:18;;;;;;;;;;;2.60;99.90;;;;;;5097047;28;19963;-86
2022/01/30 07:33:45;;;;;;;;;;;2.60;99.90;;;;;;5097244;28;19977;-86
2022/01/30 07:36:13;;;;;;;;;;;2.60;99.90;;;;;;5097096;28;19924;-86
2022/01/30 07:38:40;;;;;;;;;;;2.60;99.90;;;;;;5097113;28;19924;-86
2022/01/30 07:41:07;;;;;;;;;;;2.50;99.90;;;;;;5096978;28;19924;-86
2022/01/30 07:43:36;;;;;;;;;;;2.60;99.90;;;;;;5096659;28;19923;-86
2022/01/30 07:46:04;;;;;;;;;;;2.90;99.90;;;;;;5096974;28;19990;-86
2022/01/30 07:48:30;;;;;;;;;;;2.70;99.90;;;;;;5097063;28;19928;-86
2022/01/30 07:50:57;;;;;;;;;;;3.00;99.90;;;;;;5096725;28;19928;-86
2022/01/30 07:53:24;;;;;;;;;;;3.20;99.90;;;;;;5097150;28;19924;-86
2022/01/30 07:55:51;;;;;;;;;;;3.40;99.90;;;;;;5096759;28;19959;-86
2022/01/30 07:58:17;;;;;;;;;;;3.40;99.90;;;;;;5096707;28;19974;-85
2022/01/30 08:00:45;;;;;;;;;;;3.20;99.90;;;;;;5096551;28;19969;-86
2022/01/30 08:03:12;;;;;;;;;;;3.10;99.90;;;;;;5096119;28;20286;-86
2022/01/30 08:05:39;;;;;;;;;;;3.00;99.90;;;;;;5096700;28;19924;-86
2022/01/30 08:08:06;;;;;;;;;;;3.00;99.90;;;;;;5096061;28;19928;-86
2022/01/30 08:10:33;;;;;;;;;;;2.80;99.90;;;;;;5096405;28;20289;-86
2022/01/30 08:13:00;;;;;;;;;;;2.70;99.90;;;;;;5096240;28;19924;-86
2022/01/30 08:15:27;;;;;;;;;;;2.70;99.90;;;;;;5084908;28;20410;-86
2022/01/30 08:17:55;;;;;;;;;;;2.70;99.90;;;;;;5076070;28;19925;-86
2022/01/30 08:20:25;;;;;;;;;;;2.60;99.90;;;;;;5075972;28;20439;-86
2022/01/30 08:22:53;;;;;;;;;;;2.50;99.90;;;;;;5090366;28;19931;-85
2022/01/30 08:25:21;;;;;;;;;;;3.00;99.90;;;;;;5096273;28;19924;-86
2022/01/30 08:27:49;;;;;;;;;;;2.50;99.90;;;;;;5095895;28;19977;-86
2022/01/30 08:30:15;;;;;;;;;;;2.50;99.90;;;;;;5095835;28;19924;-85
2022/01/30 08:32:42;;;;;;;;;;;2.80;99.90;;;;;;5095545;28;20454;-85
2022/01/30 08:35:12;;;;;;;;;;;2.40;99.90;;;;;;5095513;28;19956;-86
2022/01/30 08:37:38;;;;;;;;;;;2.50;99.90;;;;;;5096108;28;19970;-85
2022/01/30 08:40:06;;;;;;;;;;;2.50;99.90;;;;;;5096029;28;19924;-86
2022/01/30 08:42:33;;;;;;;;;;;2.50;99.90;;;;;;5096078;28;19961;-86
2022/01/30 08:45:00;;;;;;;;;;;2.50;99.90;;;;;;5096212;28;19924;-86
2022/01/30 08:47:27;;;;;;;;;;;2.50;99.90;;;;;;5096386;28;19924;-86
2022/01/30 08:49:54;;;;;;;;;;;2.50;99.90;;;;;;5096321;28;19984;-86
2022/01/30 08:52:22;;;;;;;;;;;2.50;99.90;;;;;;5096055;28;19977;-86
2022/01/30 08:54:50;;;;;;;;;;;2.50;99.90;;;;;;5095989;28;19969;-86
2022/01/30 08:57:16;;;;;;;;;;;2.10;99.90;;;;;;5095896;28;19931;-85
2022/01/30 08:59:43;;;;;;;;;;;2.60;99.90;;;;;;5095949;28;19924;-86
2022/01/30 09:02:10;;;;;;;;;;;2.60;99.90;;;;;;5095741;28;20391;-86
2022/01/30 09:04:37;;;;;;;;;;;2.60;99.90;;;;;;5095888;28;19924;-86
2022/01/30 09:07:05;;;;;;;;;;;2.60;99.90;;;;;;5095678;28;19924;-86
2022/01/30 09:09:33;;;;;;;;;;;2.60;99.90;;;;;;5095629;28;19958;-86
2022/01/30 09:12:02;;;;;;;;;;;2.60;99.90;;;;;;5096094;28;19924;-85
2022/01/30 09:14:29;;;;;;;;;;;2.60;99.90;;;;;;5095703;28;20366;-86
2022/01/30 09:16:56;;;;;;;;;;;2.70;99.90;;;;;;5095251;28;19928;-86
2022/01/30 09:19:23;;;;;;;;;;;2.70;99.90;;;;;;5095776;28;19925;-86
2022/01/30 09:21:51;;;;;;;;;;;2.70;99.90;;;;;;5095330;28;19926;-85
2022/01/30 09:24:18;;;;;;;;;;;2.80;99.90;;;;;;5095500;28;19932;-86
2022/01/30 09:26:46;;;;;;;;;;;2.80;99.90;;;;;;5095385;28;19924;-86
2022/01/30 09:29:12;;;;;;;;;;;2.90;99.90;;;;;;5095477;28;19928;-86
2022/01/30 09:31:39;;;;;;;;;;;3.20;99.90;;;;;;5095476;28;19964;-87
2022/01/30 09:34:06;;;;;;;;;;;2.30;99.90;;;;;;5095345;28;19932;-86
2022/01/30 09:36:33;;;;;;;;;;;3.30;99.90;;;;;;5095021;28;20301;-86
2022/01/30 09:39:00;;;;;;;;;;;3.30;99.90;;;;;;5095444;28;19962;-87
2022/01/30 09:41:27;;;;;;;;;;;3.10;99.90;;;;;;5095241;28;19924;-86
2022/01/30 09:43:57;;;;;;;;;;;3.20;99.90;;;;;;5095051;28;19986;-86
2022/01/30 09:46:24;;;;;;;;;;;3.30;99.90;;;;;;5095537;28;19930;-85
2022/01/30 09:48:51;;;;;;;;;;;3.40;99.90;;;;;;5094816;28;20332;-85
2022/01/30 09:51:18;;;;;;;;;;;3.70;99.90;;;;;;5095241;28;19928;-87
2022/01/30 09:53:44;;;;;;;;;;;3.50;99.90;;;;;;5094262;28;19971;-85
2022/01/30 09:56:11;;;;;;;;;;;3.60;99.90;;;;;;5094701;28;19928;-86
2022/01/30 09:58:38;;;;;;;;;;;3.60;99.90;;;;;;5094845;28;20267;-86
2022/01/30 10:01:06;;;;;;;;;;;4.50;99.90;;;;;;5095109;28;19955;-86
2022/01/30 10:03:34;;;;;;;;;;;3.90;99.90;;;;;;5094700;28;19928;-86
2022/01/30 10:06:10;;;;;;;;;;;4.00;99.90;;;;;;5094392;28;19923;-87
2022/01/30 10:08:42;;;;;;;;;;;3.90;99.90;;;;;;5094585;28;19925;-86
2022/01/30 10:11:27;;;;;;;;;;;4.00;99.90;;;;;;5074854;28;20366;-85
2022/01/30 10:14:03;;;;;;;;;;;4.00;99.90;;;;;;5074241;28;20290;-87
2022/01/30 10:16:35;;;;;;;;;;;3.80;99.90;;;;;;5074620;28;19924;-86
2022/01/30 10:19:08;;;;;;;;;;;4.40;99.90;;;;;;5074726;28;19952;-87
2022/01/30 10:21:35;;;;;;;;;;;4.40;99.90;;;;;;5077974;28;19977;-87
2022/01/30 10:24:17;;;;;;;;;;;4.40;99.90;;;;;;5094555;28;20750;-86
2022/01/30 10:26:44;;;;;;;;;;;4.60;99.90;;;;;;5094698;28;19959;-86
2022/01/30 10:29:21;;;;;;;;;;;4.60;99.90;;;;;;5094072;28;19954;-86
2022/01/30 10:31:59;;;;;;;;;;;4.70;99.90;;;;;;5095021;28;19954;-86
2022/01/30 10:34:26;;;;;;;;;;;4.80;99.90;;;;;;5094349;28;19927;-85
2022/01/30 10:37:08;;;;;;;;;;;4.90;99.90;;;;;;5093863;28;19989;-86
2022/01/30 10:39:52;;;;;;;;;;;4.90;99.90;;;;;;5094099;28;19946;-86
2022/01/30 10:42:30;;;;;;;;;;;5.40;99.90;;;;;;5094414;28;19924;-87
2022/01/30 10:44:56;;;;;;;;;;;5.30;99.90;;;;;;5094957;28;19928;-87
2022/01/30 10:47:24;;;;;;;;;;;5.70;99.90;;;;;;5097763;28;19932;-86
2022/01/30 10:49:51;;;;;;;;;;;5.50;99.90;;;;;;5099049;28;19933;-87
2022/01/30 10:52:19;;;;;;;;;;;5.60;99.90;;;;;;5098058;28;19932;-87
2022/01/30 10:54:49;;;;;;;;;;;5.70;99.90;;;;;;5086370;28;19971;-86
2022/01/30 10:57:16;;;;;;;;;;;5.60;99.90;;;;;;5093569;28;19924;-86
2022/01/30 10:59:46;;;;;;;;;;;5.70;99.90;;;;;;5092975;28;19928;-87
2022/01/30 11:02:14;;;;;;;;;;;6.00;99.90;;;;;;5094062;28;20046;-87
2022/01/30 11:04:42;;;;;;;;;;;5.70;99.90;;;;;;5096312;28;19970;-86
2022/01/30 11:07:09;;;;;;;;;;;5.90;99.90;;;;;;5098039;28;19946;-87
2022/01/30 11:09:40;;;;;;;;;;;6.00;99.90;;;;;;5097767;28;20377;-86
2022/01/30 11:12:10;;;;;;;;;;;6.20;99.90;;;;;;5099434;28;20403;-87
2022/01/30 11:14:39;;;;;;;;;;;6.20;99.90;;;;;;5098461;28;19989;-87
2022/01/30 11:17:08;;;;;;;;;;;6.30;99.90;;;;;;5097644;28;20273;-87
2022/01/30 11:19:37;;;;;;;;;;;6.40;99.90;;;;;;5097577;28;19930;-87
2022/01/30 11:22:06;;;;;;;;;;;6.50;99.90;;;;;;5097909;28;19928;-88
2022/01/30 11:24:34;;;;;;;;;;;6.20;99.90;;;;;;5097351;28;19986;-87
2022/01/30 11:27:01;;;;;;;;;;;6.50;99.90;;;;;;5097832;28;20366;-87
2022/01/30 11:29:28;;;;;;;;;;;6.50;99.90;;;;;;5097688;28;19970;-87
2022/01/30 11:31:55;;;;;;;;;;;6.50;99.90;;;;;;5097938;28;19985;-87
2022/01/30 11:34:24;;;;;;;;;;;6.60;99.90;;;;;;5097316;28;19927;-88
2022/01/30 11:36:52;;;;;;;;;;;6.60;99.90;;;;;;5097631;28;19931;-88
2022/01/30 11:39:21;;;;;;;;;;;6.60;99.90;;;;;;5097592;28;20439;-87
2022/01/30 11:42:08;;;;;;;;;;;6.70;99.90;;;;;;5098648;28;19924;-87
2022/01/30 11:44:35;;;;;;;;;;;6.70;99.90;;;;;;5097092;28;20027;-87
2022/01/30 11:47:21;;;;;;;;;;;6.80;99.90;;;;;;5097285;28;19977;-87
2022/01/30 11:49:49;;;;;;;;;;;6.90;99.90;;;;;;5097417;28;19928;-87
2022/01/30 11:52:17;;;;;;;;;;;7.00;99.90;;;;;;5097329;28;19967;-88
2022/01/30 11:54:46;;;;;;;;;;;7.00;99.90;;;;;;5097401;28;20004;-88
2022/01/30 11:57:32;;;;;;;;;;;7.10;99.90;;;;;;5097001;28;19924;-87
2022/01/30 12:00:00;;;;;;;;;;;7.10;99.90;;;;;;5098295;28;19978;-87
2022/01/30 12:02:28;;;;;;;;;;;7.20;99.90;;;;;;5096706;28;19983;-88
2022/01/30 12:04:55;;;;;;;;;;;7.20;99.90;;;;;;5097033;28;20302;-87
2022/01/30 12:07:37;;;;;;;;;;;7.20;99.90;;;;;;5083933;28;20024;-87
2022/01/30 12:10:24;;;;;;;;;;;7.40;99.90;;;;;;5074777;28;19985;-86
2022/01/30 12:12:59;;;;;;;;;;;7.40;99.90;;;;;;5076982;28;19925;-87
2022/01/30 12:15:36;;;;;;;;;;;7.50;99.90;;;;;;5076132;28;20397;-88
2022/01/30 12:18:03;;;;;;;;;;;7.50;99.90;;;;;;5077266;28;19959;-87
2022/01/30 12:20:31;;;;;;;;;;;7.60;99.90;;;;;;5076632;28;19924;-86
2022/01/30 12:22:58;;;;;;;;;;;7.50;99.90;;;;;;5091476;28;20009;-86
2022/01/30 12:25:38;;;;;;;;;;;7.80;99.90;;;;;;5096594;28;19978;-88
2022/01/30 12:28:22;;;;;;;;;;;8.00;99.90;;;;;;5096797;28;20313;-88
2022/01/30 12:30:52;;;;;;;;;;;8.00;99.90;;;;;;5096726;28;19928;-87
2022/01/30 12:33:35;;;;;;;;;;;8.00;99.90;;;;;;5096489;28;19969;-86
2022/01/30 12:36:03;;;;;;;;;;;8.20;99.90;;;;;;5096124;28;19924;-87
2022/01/30 12:38:30;;;;;;;;;;;7.90;99.90;;;;;;5095921;28;19970;-86
2022/01/30 12:40:57;;;;;;;;;;;7.90;99.90;;;;;;5096304;28;19978;-87
2022/01/30 12:43:29;;;;;;;;;;;8.00;99.90;;;;;;5097720;28;19972;-87
2022/01/30 12:46:08;;;;;;;;;;;8.10;99.90;;;;;;5095793;28;19955;-87
2022/01/30 12:48:34;;;;;;;;;;;8.10;99.90;;;;;;5095893;28;19928;-87
2022/01/30 12:51:05;;;;;;;;;;;8.20;99.90;;;;;;5099404;28;19976;-85
2022/01/30 12:53:33;;;;;;;;;;;8.30;99.90;;;;;;5104841;28;20323;-87
2022/01/30 12:56:00;;;;;;;;;;;8.20;99.90;;;;;;5105773;28;19924;-85
2022/01/30 12:58:32;;;;;;;;;;;8.30;99.90;;;;;;5103154;28;19955;-86
2022/01/30 13:01:08;;;;;;;;;;;7.90;99.90;;;;;;5096097;28;19924;-86
2022/01/30 13:03:35;;;;;;;;;;;8.00;99.90;;;;;;5095445;28;19924;-87
2022/01/30 13:06:02;;;;;;;;;;;8.10;99.90;;;;;;5095096;28;20000;-88
2022/01/30 13:08:44;;;;;;;;;;;7.90;99.90;;;;;;5095201;28;19993;-87
2022/01/30 13:11:15;;;;;;;;;;;7.80;99.90;;;;;;5095747;28;19924;-86
2022/01/30 13:13:55;;;;;;;;;;;7.90;99.90;;;;;;5095157;28;19924;-87
2022/01/30 13:16:24;;;;;;;;;;;7.90;99.90;;;;;;5096316;28;19924;-86
2022/01/30 13:18:51;;;;;;;;;;;8.00;99.90;;;;;;5094894;28;19946;-87
2022/01/30 13:21:21;;;;;;;;;;;8.00;99.90;;;;;;5095139;28;19940;-85
2022/01/30 13:23:48;;;;;;;;;;;8.10;99.90;;;;;;5095318;28;20373;-86
2022/01/30 13:26:28;;;;;;;;;;;8.20;99.90;;;;;;5095007;28;20331;-87
2022/01/30 13:28:54;;;;;;;;;;;8.30;99.90;;;;;;5093689;28;20419;-85
2022/01/30 13:31:21;;;;;;;;;;;8.40;99.90;;;;;;5094068;28;20001;-86
2022/01/30 13:34:03;;;;;;;;;;;8.50;99.90;;;;;;5095717;28;19944;-87
2022/01/30 13:36:31;;;;;;;;;;;8.50;99.90;;;;;;5095767;28;19977;-85
2022/01/30 13:38:58;;;;;;;;;;;8.60;99.90;;;;;;5094656;28;20381;-86
2022/01/30 13:41:28;;;;;;;;;;;8.50;99.90;;;;;;5095169;28;19940;-86
2022/01/30 13:43:57;;;;;;;;;;;8.50;99.90;;;;;;5094933;28;19947;-87
2022/01/30 13:49:11;;;;;;;;;;;8.40;99.90;;;;;;5081404;28;20208;-87
2022/01/30 13:51:39;;;;;;;;;;;8.50;99.90;;;;;;5094758;28;20336;-86
2022/01/30 13:54:09;;;;;;;;;;;8.40;99.90;;;;;;5095074;28;20350;-86
2022/01/30 13:56:36;;;;;;;;;;;8.40;99.90;;;;;;5097703;28;19932;-87
2022/01/30 13:59:03;;;;;;;;;;;8.40;99.90;;;;;;5095143;28;19923;-88
2022/01/30 14:01:31;;;;;;;;;;;8.50;99.90;;;;;;5094645;28;19969;-87
2022/01/30 14:04:07;;;;;;;;;;;8.40;99.90;;;;;;5094400;28;19930;-86
2022/01/30 14:06:35;;;;;;;;;;;8.40;99.90;;;;;;5095124;28;19932;-87
2022/01/30 14:09:04;;;;;;;;;;;8.40;99.90;;;;;;5090973;28;19924;-86
2022/01/30 14:11:31;;;;;;;;;;;8.30;99.90;;;;;;5074717;28;19928;-87
2022/01/30 14:14:04;;;;;;;;;;;8.30;99.90;;;;;;5082106;28;19984;-87
2022/01/30 14:16:35;;;;;;;;;;;8.30;99.90;;;;;;5094778;28;20285;-87
2022/01/30 14:19:02;;;;;;;;;;;8.20;99.90;;;;;;5094386;28;19928;-88
2022/01/30 14:21:33;;;;;;;;;;;8.20;99.90;;;;;;5094735;28;20316;-87
2022/01/30 14:24:02;;;;;;;;;;;8.20;99.90;;;;;;5093444;28;19924;-86
2022/01/30 14:26:31;;;;;;;;;;;8.10;99.90;;;;;;5094545;28;20332;-88
2022/01/30 14:29:08;;;;;;;;;;;8.20;99.90;;;;;;5094902;28;20284;-86
2022/01/30 14:31:48;;;;;;;;;;;8.20;99.90;;;;;;5095216;28;20235;-87
2022/01/30 14:34:15;;;;;;;;;;;8.20;99.90;;;;;;5094858;28;20001;-87
2022/01/30 14:36:43;;;;;;;;;;;8.20;99.90;;;;;;5094823;28;19966;-87
2022/01/30 14:39:11;;;;;;;;;;;8.20;99.90;;;;;;5096404;28;19954;-87
2022/01/30 14:41:39;;;;;;;;;;;8.10;99.90;;;;;;5098509;28;19930;-87
2022/01/30 14:44:06;;;;;;;;;;;8.10;99.90;;;;;;5098122;28;20430;-88
2022/01/30 14:46:33;;;;;;;;;;;8.10;99.90;;;;;;5098191;28;19924;-85
2022/01/30 14:49:00;;;;;;;;;;;8.00;99.90;;;;;;5098537;28;19924;-86
2022/01/30 14:51:27;;;;;;;;;;;8.50;99.90;;;;;;5106522;28;19924;-86
2022/01/30 14:53:54;;;;;;;;;;;8.00;99.90;;;;;;5104383;28;20391;-87
2022/01/30 14:56:21;;;;;;;;;;;8.00;99.90;;;;;;5105842;28;19924;-86
2022/01/30 14:58:49;;;;;;;;;;;8.00;99.90;;;;;;5102822;28;19925;-87
2022/01/30 15:01:16;;;;;;;;;;;8.00;99.90;;;;;;5099294;28;19924;-87
2022/01/30 15:03:43;;;;;;;;;;;8.00;99.90;;;;;;5098446;28;19946;-87
2022/01/30 15:06:09;;;;;;;;;;;8.00;99.90;;;;;;5096204;28;19931;-87
2022/01/30 15:08:36;;;;;;;;;;;8.00;99.90;;;;;;5097928;28;19926;-88
2022/01/30 15:11:03;;;;;;;;;;;8.10;99.90;;;;;;5098754;28;20334;-88
2022/01/30 15:13:32;;;;;;;;;;;8.10;99.90;;;;;;5098425;28;19985;-86
2022/01/30 15:16:06;;;;;;;;;;;8.10;99.90;;;;;;5098350;28;19928;-88
2022/01/30 15:18:36;;;;;;;;;;;8.00;99.90;;;;;;5098128;28;19970;-87
2022/01/30 15:21:03;;;;;;;;;;;8.00;99.90;;;;;;5099047;28;19931;-87
2022/01/30 15:23:30;;;;;;;;;;;8.00;99.90;;;;;;5098402;28;19924;-86
2022/01/30 15:25:56;;;;;;;;;;;8.00;99.90;;;;;;5097099;28;20014;-86